Time;durP1;ratioP1;P1;durP2;ratioP2;P2;SDS_P1;SDS_P2;PMS_P1;PMS_P2;Temp;Humidity;BMP_temperature;BMP_pressure;BME280_temperature;BME280_humidity;BME280_pressure;Samples;Min_cycle;Max_cycle;Signal;HPM_P1;HPM_P2
2022/04/25 00:00:35;;;;;;;;;;;18.00;63.30;;;;;;5027306;28;86966;-52
2022/04/25 00:03:03;;;;;;;;;;;18.00;63.30;;;;;;5029418;28;87502;-50
2022/04/25 00:05:28;;;;;;;;;;;18.00;63.30;;;;;;5026886;28;87168;-53
2022/04/25 00:07:54;;;;;;;;;;;18.00;63.40;;;;;;5026595;28;88610;-50
2022/04/25 00:10:20;;;;;;;;;;;18.00;63.40;;;;;;5027385;28;86075;-50
2022/04/25 00:12:46;;;;;;;;;;;18.00;63.30;;;;;;5026898;28;87182;-51
2022/04/25 00:15:12;;;;;;;;;;;18.00;63.30;;;;;;5026423;28;88229;-51
2022/04/25 00:17:37;;;;;;;;;;;18.00;63.40;;;;;;5026148;28;87866;-53
2022/04/25 00:20:04;;;;;;;;;;;18.00;63.40;;;;;;5027001;28;87899;-50
2022/04/25 00:22:30;;;;;;;;;;;17.90;63.30;;;;;;5025835;28;86841;-51
2022/04/25 00:24:55;;;;;;;;;;;18.00;63.40;;;;;;5029272;28;86902;-51
2022/04/25 00:27:22;;;;;;;;;;;17.90;63.40;;;;;;5026239;28;88507;-53
2022/04/25 00:29:48;;;;;;;;;;;18.00;63.30;;;;;;5026574;28;86930;-51
2022/04/25 00:32:13;;;;;;;;;;;17.90;63.30;;;;;;5026839;28;86850;-55
2022/04/25 00:34:39;;;;;;;;;;;17.90;63.20;;;;;;5026760;28;86712;-52
2022/04/25 00:37:05;;;;;;;;;;;17.90;63.30;;;;;;5026514;28;86881;-51
2022/04/25 00:39:30;;;;;;;;;;;17.90;63.30;;;;;;5025527;28;87280;-51
2022/04/25 00:41:57;;;;;;;;;;;17.90;63.30;;;;;;5024805;28;87882;-53
2022/04/25 00:44:23;;;;;;;;;;;17.90;63.30;;;;;;5029294;28;86929;-51
2022/04/25 00:46:49;;;;;;;;;;;17.90;63.30;;;;;;5025885;28;88553;-54
2022/04/25 00:49:14;;;;;;;;;;;17.90;63.30;;;;;;5026239;28;87209;-53
2022/04/25 00:51:40;;;;;;;;;;;17.80;63.30;;;;;;5026313;28;87895;-50
2022/04/25 00:54:06;;;;;;;;;;;17.80;63.30;;;;;;5026127;28;87669;-50
2022/04/25 00:56:33;;;;;;;;;;;17.80;63.30;;;;;;5026406;28;86990;-50
2022/04/25 00:58:58;;;;;;;;;;;17.80;63.30;;;;;;5026683;28;88056;-53
2022/04/25 01:01:24;;;;;;;;;;;17.80;63.30;;;;;;5025302;28;87441;-51
2022/04/25 01:03:50;;;;;;;;;;;17.80;63.30;;;;;;5026329;28;86955;-52
2022/04/25 01:06:16;;;;;;;;;;;17.80;63.30;;;;;;5028289;28;87796;-53
2022/04/25 01:08:42;;;;;;;;;;;17.80;63.30;;;;;;5026112;28;87000;-53
2022/04/25 01:11:08;;;;;;;;;;;17.80;63.40;;;;;;5026289;28;86881;-51
2022/04/25 01:13:34;;;;;;;;;;;17.80;63.30;;;;;;5025577;28;89161;-50
2022/04/25 01:15:59;;;;;;;;;;;17.70;63.30;;;;;;5025910;28;86882;-50
2022/04/25 01:18:25;;;;;;;;;;;17.70;63.30;;;;;;5025068;28;86964;-51
2022/04/25 01:20:54;;;;;;;;;;;17.70;63.30;;;;;;5025421;28;88731;-51
2022/04/25 01:28:52;;;;;;;;;;;17.70;63.30;;;;;;5028610;28;86843;-51
2022/04/25 01:31:18;;;;;;;;;;;17.70;63.40;;;;;;5025516;28;87818;-50
2022/04/25 01:33:44;;;;;;;;;;;17.70;63.30;;;;;;5025573;28;87515;-53
2022/04/25 01:36:11;;;;;;;;;;;17.70;63.30;;;;;;5025581;28;86894;-50
2022/04/25 01:38:36;;;;;;;;;;;17.70;63.30;;;;;;5025634;28;87667;-53
2022/04/25 01:41:02;;;;;;;;;;;17.70;64.00;;;;;;5025131;28;89026;-54
2022/04/25 01:43:28;;;;;;;;;;;17.60;63.30;;;;;;5025671;28;87132;-52
2022/04/25 01:45:53;;;;;;;;;;;17.60;63.30;;;;;;5025553;28;87898;-50
2022/04/25 01:48:21;;;;;;;;;;;17.60;63.30;;;;;;5026008;28;86809;-51
2022/04/25 01:50:49;;;;;;;;;;;17.60;63.30;;;;;;5029273;28;87178;-50
2022/04/25 01:53:15;;;;;;;;;;;17.60;63.30;;;;;;5028602;28;88339;-50
2022/04/25 01:55:41;;;;;;;;;;;17.60;63.20;;;;;;5028592;28;87777;-50
2022/04/25 01:58:06;;;;;;;;;;;17.60;63.30;;;;;;5029153;28;87750;-50
2022/04/25 02:00:33;;;;;;;;;;;17.60;63.30;;;;;;5028697;28;87913;-51
2022/04/25 02:02:58;;;;;;;;;;;17.60;63.30;;;;;;5027569;28;87067;-51
2022/04/25 02:05:24;;;;;;;;;;;17.60;63.30;;;;;;5028843;28;88450;-53
2022/04/25 02:07:49;;;;;;;;;;;17.60;63.30;;;;;;5028380;28;88387;-50
2022/04/25 02:10:15;;;;;;;;;;;17.60;63.30;;;;;;5029038;28;87014;-51
2022/04/25 02:12:42;;;;;;;;;;;17.50;63.20;;;;;;5031925;28;86805;-50
2022/04/25 02:15:12;;;;;;;;;;;17.50;63.30;;;;;;5028912;28;86912;-50
2022/04/25 02:17:38;;;;;;;;;;;17.50;63.30;;;;;;5028656;28;87227;-50
2022/04/25 02:20:04;;;;;;;;;;;17.50;63.30;;;;;;5027858;28;89023;-50
2022/04/25 02:22:30;;;;;;;;;;;17.50;63.30;;;;;;5028493;28;87154;-50
2022/04/25 02:24:55;;;;;;;;;;;17.50;63.30;;;;;;5028886;28;87038;-50
2022/04/25 02:27:21;;;;;;;;;;;17.50;63.30;;;;;;5027947;28;88580;-50
2022/04/25 02:29:48;;;;;;;;;;;17.50;63.30;;;;;;5028471;28;86881;-50
2022/04/25 02:32:13;;;;;;;;;;;17.50;63.30;;;;;;5030345;28;86970;-53
2022/04/25 02:34:41;;;;;;;;;;;17.50;63.30;;;;;;5028377;28;87001;-51
2022/04/25 02:37:06;;;;;;;;;;;17.50;63.40;;;;;;5029129;28;86869;-50
2022/04/25 02:39:32;;;;;;;;;;;17.50;63.40;;;;;;5027780;28;87717;-50
2022/04/25 02:41:58;;;;;;;;;;;17.40;63.30;;;;;;5028188;28;86902;-50
2022/04/25 02:44:23;;;;;;;;;;;17.40;63.30;;;;;;5027900;28;87843;-50
2022/04/25 02:46:49;;;;;;;;;;;17.40;63.30;;;;;;5028097;28;87232;-50
2022/04/25 02:49:14;;;;;;;;;;;17.40;63.30;;;;;;5028136;28;87007;-50
2022/04/25 02:51:40;;;;;;;;;;;17.40;63.30;;;;;;5028393;28;86831;-50
2022/04/25 02:54:06;;;;;;;;;;;17.40;63.40;;;;;;5030596;28;88776;-50
2022/04/25 02:56:32;;;;;;;;;;;17.40;63.40;;;;;;5028075;28;87898;-50
2022/04/25 02:58:57;;;;;;;;;;;17.40;63.40;;;;;;5027869;28;87526;-50
2022/04/25 03:01:23;;;;;;;;;;;17.40;63.40;;;;;;5028384;28;86199;-50
2022/04/25 03:03:48;;;;;;;;;;;17.30;63.30;;;;;;5027005;28;87077;-51
2022/04/25 03:06:14;;;;;;;;;;;17.30;63.40;;;;;;5027856;28;86921;-53
2022/04/25 03:08:40;;;;;;;;;;;17.30;63.40;;;;;;5027124;28;87858;-51
2022/04/25 03:11:08;;;;;;;;;;;17.30;63.40;;;;;;5027856;28;88749;-50
2022/04/25 03:13:34;;;;;;;;;;;17.30;63.40;;;;;;5026519;28;87787;-51
2022/04/25 03:16:01;;;;;;;;;;;17.30;63.30;;;;;;5030566;28;86881;-51
2022/04/25 03:18:27;;;;;;;;;;;17.30;63.40;;;;;;5026942;28;88846;-50
2022/04/25 03:20:53;;;;;;;;;;;17.30;63.40;;;;;;5026906;28;86948;-50
2022/04/25 03:23:19;;;;;;;;;;;17.30;63.40;;;;;;5027030;28;86938;-51
2022/04/25 03:25:45;;;;;;;;;;;17.30;63.40;;;;;;5027052;28;87843;-50
2022/04/25 03:28:11;;;;;;;;;;;17.20;63.30;;;;;;5026811;28;86972;-50
2022/04/25 03:30:37;;;;;;;;;;;17.30;63.40;;;;;;5026995;28;86956;-50
2022/04/25 03:33:03;;;;;;;;;;;17.20;63.30;;;;;;5025874;28;89980;-50
2022/04/25 03:35:29;;;;;;;;;;;17.20;63.40;;;;;;5026560;28;86898;-50
2022/04/25 03:37:55;;;;;;;;;;;17.20;63.30;;;;;;5029276;28;88049;-51
2022/04/25 03:40:20;;;;;;;;;;;17.20;63.40;;;;;;5026678;28;86941;-51
2022/04/25 03:42:46;;;;;;;;;;;17.20;63.40;;;;;;5027017;28;87112;-51
2022/04/25 03:45:15;;;;;;;;;;;17.20;63.40;;;;;;5026288;28;88439;-51
2022/04/25 03:47:40;;;;;;;;;;;17.20;63.40;;;;;;5026857;28;87108;-50
2022/04/25 03:50:08;;;;;;;;;;;17.20;63.50;;;;;;5027321;28;87383;-50
2022/04/25 03:52:34;;;;;;;;;;;17.20;64.00;;;;;;5026136;28;87612;-53
2022/04/25 03:57:44;;;;;;;;;;;17.10;63.40;;;;;;5026228;28;87840;-50
2022/04/25 04:00:10;;;;;;;;;;;17.10;63.40;;;;;;5028850;28;88606;-50
2022/04/25 04:02:36;;;;;;;;;;;17.10;63.40;;;;;;5025727;28;88467;-51
2022/04/25 04:05:02;;;;;;;;;;;17.10;63.30;;;;;;5026414;28;87466;-51
2022/04/25 04:07:28;;;;;;;;;;;17.10;63.40;;;;;;5026356;28;86850;-50
2022/04/25 04:09:53;;;;;;;;;;;17.10;63.40;;;;;;5026449;28;87051;-50
2022/04/25 04:12:19;;;;;;;;;;;17.10;63.30;;;;;;5026224;28;87384;-54
2022/04/25 04:14:45;;;;;;;;;;;17.10;63.30;;;;;;5026983;28;86169;-51
2022/04/25 04:17:11;;;;;;;;;;;17.10;63.40;;;;;;5026212;28;86842;-51
2022/04/25 04:19:38;;;;;;;;;;;17.10;63.30;;;;;;5026010;28;87407;-51
2022/04/25 04:22:04;;;;;;;;;;;17.10;63.40;;;;;;5028478;28;87789;-52
2022/04/25 04:24:31;;;;;;;;;;;17.10;63.40;;;;;;5025734;28;88606;-50
2022/04/25 04:27:15;;;;;;;;;;;17.10;63.40;;;;;;5026052;28;86871;-54
2022/04/25 04:29:41;;;;;;;;;;;17.00;63.30;;;;;;5026091;28;87091;-50
2022/04/25 04:32:07;;;;;;;;;;;17.10;63.40;;;;;;5025743;28;88503;-51
2022/04/25 04:34:34;;;;;;;;;;;17.00;63.40;;;;;;5026002;28;87431;-53
2022/04/25 04:37:00;;;;;;;;;;;17.10;63.40;;;;;;5025974;28;87081;-50
2022/04/25 04:39:25;;;;;;;;;;;17.10;63.30;;;;;;5026199;28;87687;-54
2022/04/25 04:41:51;;;;;;;;;;;17.00;63.30;;;;;;5028998;28;86919;-51
2022/04/25 04:44:17;;;;;;;;;;;17.00;63.40;;;;;;5025411;28;87641;-51
2022/04/25 04:46:43;;;;;;;;;;;17.00;63.30;;;;;;5025503;28;87812;-51
2022/04/25 04:49:08;;;;;;;;;;;17.00;63.30;;;;;;5025939;28;87843;-50
2022/04/25 04:51:34;;;;;;;;;;;17.00;63.30;;;;;;5025452;28;87664;-53
2022/04/25 04:54:00;;;;;;;;;;;17.00;63.40;;;;;;5026001;28;87173;-51
2022/04/25 04:56:26;;;;;;;;;;;17.00;63.40;;;;;;5025546;28;87885;-51
2022/04/25 04:58:52;;;;;;;;;;;17.00;63.40;;;;;;5025331;28;88605;-51
2022/04/25 05:01:18;;;;;;;;;;;17.00;63.40;;;;;;5025437;28;87127;-51
2022/04/25 05:03:44;;;;;;;;;;;17.00;63.30;;;;;;5028538;28;87955;-50
2022/04/25 05:06:10;;;;;;;;;;;17.00;63.30;;;;;;5025523;28;86940;-50
2022/04/25 05:08:36;;;;;;;;;;;17.00;63.30;;;;;;5025586;28;87128;-51
2022/04/25 05:11:02;;;;;;;;;;;17.00;63.30;;;;;;5023321;28;88535;-51
2022/04/25 05:13:28;;;;;;;;;;;17.00;63.30;;;;;;5025506;28;87166;-51
2022/04/25 05:15:54;;;;;;;;;;;17.00;63.30;;;;;;5025796;28;87130;-52
2022/04/25 05:18:19;;;;;;;;;;;17.00;63.40;;;;;;5025425;28;87647;-52
2022/04/25 05:20:45;;;;;;;;;;;17.00;63.40;;;;;;5025767;28;86969;-53
2022/04/25 05:23:10;;;;;;;;;;;17.00;64.00;;;;;;5025419;28;88088;-50
2022/04/25 05:25:38;;;;;;;;;;;17.00;63.40;;;;;;5028252;28;87778;-50
2022/04/25 05:28:04;;;;;;;;;;;17.00;63.40;;;;;;5029551;28;87083;-52
2022/04/25 05:30:30;;;;;;;;;;;17.00;63.40;;;;;;5028685;28;86846;-50
2022/04/25 05:32:57;;;;;;;;;;;17.00;63.40;;;;;;5029169;28;86901;-50
2022/04/25 05:35:24;;;;;;;;;;;17.00;63.40;;;;;;5028360;28;88002;-52
2022/04/25 05:37:50;;;;;;;;;;;17.00;63.40;;;;;;5028269;28;88447;-52
2022/04/25 05:40:16;;;;;;;;;;;17.00;63.40;;;;;;5028708;28;86890;-50
2022/04/25 05:42:43;;;;;;;;;;;17.00;63.40;;;;;;5028711;28;87094;-51
2022/04/25 05:45:09;;;;;;;;;;;17.00;63.40;;;;;;5027681;28;87594;-53
2022/04/25 05:47:36;;;;;;;;;;;17.00;63.40;;;;;;5031661;28;86873;-50
2022/04/25 05:52:46;;;;;;;;;;;17.00;63.50;;;;;;5026039;28;85995;-50
2022/04/25 05:55:12;;;;;;;;;;;17.00;63.40;;;;;;5028786;28;86980;-53
2022/04/25 05:57:40;;;;;;;;;;;17.00;63.50;;;;;;5028663;28;87664;-51
2022/04/25 06:00:07;;;;;;;;;;;17.00;63.70;;;;;;5027699;28;87845;-51
2022/04/25 06:02:35;;;;;;;;;;;17.00;63.50;;;;;;5028166;28;87931;-54
2022/04/25 06:05:01;;;;;;;;;;;17.00;63.50;;;;;;5028017;28;88577;-52
2022/04/25 06:07:26;;;;;;;;;;;17.00;63.50;;;;;;5028312;28;86844;-50
2022/04/25 06:09:52;;;;;;;;;;;17.00;63.50;;;;;;5030744;28;88086;-52
2022/04/25 06:12:17;;;;;;;;;;;17.00;63.50;;;;;;5028194;28;86938;-51
2022/04/25 06:14:44;;;;;;;;;;;17.00;63.40;;;;;;5028241;28;88293;-50
2022/04/25 06:17:13;;;;;;;;;;;17.00;63.40;;;;;;5027393;28;86936;-51
2022/04/25 06:19:39;;;;;;;;;;;17.00;63.40;;;;;;5027996;28;86913;-50
2022/04/25 06:22:04;;;;;;;;;;;17.00;63.40;;;;;;5028215;28;86914;-54
2022/04/25 06:24:30;;;;;;;;;;;17.00;63.40;;;;;;5027092;28;88799;-50
2022/04/25 06:26:57;;;;;;;;;;;17.00;63.50;;;;;;5027846;28;86861;-51
2022/04/25 06:29:24;;;;;;;;;;;17.00;63.40;;;;;;5028021;28;87916;-51
2022/04/25 06:31:50;;;;;;;;;;;17.00;63.40;;;;;;5030468;28;87681;-51
2022/04/25 06:34:16;;;;;;;;;;;17.00;63.50;;;;;;5028285;28;86876;-50
2022/04/25 06:36:41;;;;;;;;;;;17.00;63.40;;;;;;5027315;28;87051;-51
2022/04/25 06:39:07;;;;;;;;;;;17.00;63.40;;;;;;5026489;28;86873;-50
2022/04/25 06:41:33;;;;;;;;;;;17.10;64.10;;;;;;5028168;28;88078;-50
2022/04/25 06:43:59;;;;;;;;;;;17.00;63.40;;;;;;5027369;28;88576;-53
2022/04/25 06:46:25;;;;;;;;;;;17.00;63.40;;;;;;5027739;28;86841;-50
2022/04/25 06:51:35;;;;;;;;;;;17.00;63.30;;;;;;5027165;28;87039;-50
2022/04/25 06:54:00;;;;;;;;;;;17.00;63.30;;;;;;5027965;28;88193;-50
2022/04/25 06:56:26;;;;;;;;;;;17.00;63.90;;;;;;5027299;28;87684;-51
2022/04/25 06:58:52;;;;;;;;;;;17.00;63.40;;;;;;5027513;28;86880;-54
2022/04/25 07:01:17;;;;;;;;;;;17.00;63.30;;;;;;5026074;28;86876;-51
2022/04/25 07:03:43;;;;;;;;;;;17.10;63.40;;;;;;5027237;28;87386;-52
2022/04/25 07:06:09;;;;;;;;;;;17.00;63.30;;;;;;5028120;28;86099;-50
2022/04/25 07:08:34;;;;;;;;;;;17.00;63.30;;;;;;5027717;28;86869;-53
2022/04/25 07:11:00;;;;;;;;;;;17.00;63.30;;;;;;5026846;28;88421;-50
2022/04/25 07:13:25;;;;;;;;;;;17.10;63.30;;;;;;5029712;28;87862;-52
2022/04/25 07:15:51;;;;;;;;;;;17.00;63.30;;;;;;5027105;28;86838;-55
2022/04/25 07:18:17;;;;;;;;;;;17.00;63.30;;;;;;5027504;28;86911;-51
2022/04/25 07:20:43;;;;;;;;;;;17.10;63.30;;;;;;5027245;28;87105;-50
2022/04/25 07:28:49;;;;;;;;;;;17.10;63.30;;;;;;5024170;28;86882;-50
2022/04/25 07:31:15;;;;;;;;;;;17.00;63.20;;;;;;5027050;28;87068;-51
2022/04/25 07:33:43;;;;;;;;;;;17.10;63.20;;;;;;5027497;28;86874;-52
2022/04/25 07:36:09;;;;;;;;;;;17.10;63.20;;;;;;5029539;28;87792;-50
2022/04/25 07:38:35;;;;;;;;;;;17.00;63.10;;;;;;5026563;28;87901;-51
2022/04/25 07:41:01;;;;;;;;;;;17.00;63.20;;;;;;5026857;28;88959;-50
2022/04/25 07:43:29;;;;;;;;;;;17.10;63.20;;;;;;5008454;28;88949;-51
2022/04/25 07:45:55;;;;;;;;;;;17.10;63.10;;;;;;5026883;28;86884;-53
2022/04/25 07:48:20;;;;;;;;;;;17.10;63.00;;;;;;5026908;28;86938;-50
2022/04/25 07:50:47;;;;;;;;;;;17.10;63.10;;;;;;5026343;28;88452;-52
2022/04/25 07:53:12;;;;;;;;;;;17.10;63.00;;;;;;5026767;28;86884;-50
2022/04/25 07:55:38;;;;;;;;;;;17.10;63.20;;;;;;5027389;28;86697;-50
2022/04/25 07:58:04;;;;;;;;;;;17.10;63.10;;;;;;5029450;28;88090;-51
2022/04/25 08:00:29;;;;;;;;;;;17.10;63.10;;;;;;5025692;28;86939;-51
2022/04/25 08:02:55;;;;;;;;;;;17.10;63.00;;;;;;5024788;28;89499;-50
2022/04/25 08:05:21;;;;;;;;;;;17.10;63.10;;;;;;5026385;28;86932;-51
2022/04/25 08:07:46;;;;;;;;;;;17.10;63.00;;;;;;5026984;28;86852;-50
2022/04/25 08:10:12;;;;;;;;;;;17.10;63.10;;;;;;5026018;28;88429;-51
2022/04/25 08:18:06;;;;;;;;;;;17.10;63.00;;;;;;5026344;28;87183;-54
2022/04/25 08:20:34;;;;;;;;;;;17.10;63.00;;;;;;5029769;28;86127;-52
2022/04/25 08:23:00;;;;;;;;;;;17.20;62.90;;;;;;5024754;28;87570;-54
2022/04/25 08:25:27;;;;;;;;;;;17.10;62.90;;;;;;5026457;28;86869;-53
2022/04/25 08:27:53;;;;;;;;;;;17.20;62.90;;;;;;5025526;28;87875;-50
2022/04/25 08:30:19;;;;;;;;;;;17.20;63.20;;;;;;5025753;28;87625;-50
2022/04/25 08:32:46;;;;;;;;;;;17.20;62.80;;;;;;5026072;28;86878;-52
2022/04/25 08:35:12;;;;;;;;;;;17.20;62.70;;;;;;5026033;28;87019;-51
2022/04/25 08:37:38;;;;;;;;;;;17.20;62.70;;;;;;5025822;28;88358;-51
2022/04/25 08:40:04;;;;;;;;;;;17.20;62.60;;;;;;5025961;28;86918;-52
2022/04/25 08:42:31;;;;;;;;;;;17.20;62.50;;;;;;5028357;28;86863;-51
2022/04/25 08:44:58;;;;;;;;;;;17.20;62.20;;;;;;5026299;28;86165;-50
2022/04/25 08:47:28;;;;;;;;;;;17.20;62.30;;;;;;5026126;28;87251;-53
2022/04/25 08:49:57;;;;;;;;;;;17.20;62.40;;;;;;5025515;28;88647;-52
2022/04/25 08:52:23;;;;;;;;;;;17.20;62.30;;;;;;5025109;28;87786;-51
2022/04/25 08:57:35;;;;;;;;;;;17.20;62.40;;;;;;5025592;28;87025;-50
2022/04/25 09:00:04;;;;;;;;;;;17.30;62.10;;;;;;5025051;28;86926;-50
2022/04/25 09:02:30;;;;;;;;;;;17.30;62.10;;;;;;5027540;28;87556;-50
2022/04/25 09:04:55;;;;;;;;;;;17.30;62.10;;;;;;5025487;28;86992;-51
2022/04/25 09:07:21;;;;;;;;;;;17.30;62.10;;;;;;5025788;28;87864;-52
2022/04/25 09:09:46;;;;;;;;;;;17.30;61.90;;;;;;5025651;28;87729;-52
2022/04/25 09:12:17;;;;;;;;;;;17.40;61.70;;;;;;5025532;28;86903;-51
2022/04/25 09:14:44;;;;;;;;;;;17.40;62.00;;;;;;5025699;28;88066;-50
2022/04/25 09:17:10;;;;;;;;;;;17.40;61.90;;;;;;5024649;28;88223;-52
2022/04/25 09:19:37;;;;;;;;;;;17.40;61.90;;;;;;5025424;28;86904;-51
2022/04/25 09:22:03;;;;;;;;;;;17.40;61.90;;;;;;5025310;28;88254;-50
2022/04/25 09:24:29;;;;;;;;;;;17.40;61.70;;;;;;5027948;28;88661;-51
2022/04/25 09:27:09;;;;;;;;;;;17.40;61.80;;;;;;5025926;28;87092;-50
2022/04/25 09:29:36;;;;;;;;;;;17.40;61.80;;;;;;5025172;28;87629;-51
2022/04/25 09:32:02;;;;;;;;;;;17.40;61.80;;;;;;5025579;28;86939;-52
2022/04/25 09:37:15;;;;;;;;;;;17.50;61.90;;;;;;5025247;28;87231;-51
2022/04/25 09:39:41;;;;;;;;;;;17.50;62.00;;;;;;5025484;28;86801;-53
2022/04/25 09:42:07;;;;;;;;;;;17.50;61.90;;;;;;5024860;28;87807;-52
2022/04/25 09:44:52;;;;;;;;;;;17.50;61.60;;;;;;5024791;28;87651;-50
2022/04/25 09:47:24;;;;;;;;;;;17.50;61.50;;;;;;5028013;28;86821;-51
2022/04/25 09:50:00;;;;;;;;;;;17.60;61.60;;;;;;5024808;28;87668;-51
2022/04/25 09:52:26;;;;;;;;;;;17.60;61.40;;;;;;5025382;28;86922;-52
2022/04/25 09:54:52;;;;;;;;;;;17.60;61.40;;;;;;5025027;28;86991;-52
2022/04/25 09:57:28;;;;;;;;;;;17.60;61.30;;;;;;5024546;28;88277;-52
2022/04/25 09:59:56;;;;;;;;;;;17.60;61.10;;;;;;5025764;28;86093;-51
2022/04/25 10:02:22;;;;;;;;;;;17.60;61.10;;;;;;5024904;28;87321;-52
2022/04/25 10:04:47;;;;;;;;;;;17.70;61.10;;;;;;5024520;28;88485;-52
2022/04/25 10:07:14;;;;;;;;;;;17.70;61.00;;;;;;5024298;28;87884;-52
2022/04/25 10:09:40;;;;;;;;;;;17.70;61.10;;;;;;5027314;28;88969;-53
2022/04/25 10:14:41;;;;;;;;;;;17.70;61.10;;;;;;5210628;22;88531;-51
2022/04/25 10:17:06;;;;;;;;;;;17.70;61.00;;;;;;5027725;28;88579;-50
2022/04/25 10:19:32;;;;;;;;;;;17.70;60.90;;;;;;5028312;28;87379;-50
2022/04/25 10:21:58;;;;;;;;;;;17.70;61.10;;;;;;5028172;28;87312;-52
2022/04/25 10:24:23;;;;;;;;;;;17.70;61.00;;;;;;5028242;28;88002;-50
2022/04/25 10:26:50;;;;;;;;;;;17.80;61.10;;;;;;5028435;28;87108;-52
2022/04/25 10:29:18;;;;;;;;;;;17.80;61.20;;;;;;5028031;28;87972;-51
2022/04/25 10:31:45;;;;;;;;;;;17.80;61.10;;;;;;5029820;28;89690;-50
2022/04/25 10:34:14;;;;;;;;;;;17.80;61.20;;;;;;5028255;28;87830;-51
2022/04/25 10:36:39;;;;;;;;;;;17.80;61.10;;;;;;5027395;28;88607;-53
2022/04/25 10:39:17;;;;;;;;;;;17.90;61.20;;;;;;5028009;28;87067;-52
2022/04/25 10:44:43;;;;;;;;;;;17.90;60.90;;;;;;5027875;28;87437;-51
2022/04/25 10:47:13;;;;;;;;;;;17.90;60.90;;;;;;5027806;28;86937;-51
2022/04/25 10:49:42;;;;;;;;;;;17.90;60.90;;;;;;5028559;28;86706;-51
2022/04/25 10:52:26;;;;;;;;;;;18.00;60.70;;;;;;5026636;28;86937;-51
2022/04/25 10:55:13;;;;;;;;;;;18.00;60.70;;;;;;5030740;28;86834;-50
2022/04/25 10:57:57;;;;;;;;;;;18.00;60.80;;;;;;5026842;28;88512;-51
2022/04/25 11:00:39;;;;;;;;;;;18.00;60.70;;;;;;5027845;28;86887;-50
2022/04/25 11:03:14;;;;;;;;;;;18.10;60.70;;;;;;5027500;28;87957;-52
2022/04/25 11:05:42;;;;;;;;;;;18.10;60.60;;;;;;5027362;28;89018;-50
2022/04/25 11:08:19;;;;;;;;;;;18.10;60.50;;;;;;5027624;28;87210;-50
2022/04/25 11:10:58;;;;;;;;;;;18.10;60.60;;;;;;5027723;28;87872;-51
2022/04/25 11:13:26;;;;;;;;;;;18.10;60.10;;;;;;5026894;28;87695;-52
2022/04/25 11:15:53;;;;;;;;;;;18.20;60.30;;;;;;5030846;28;86213;-53
2022/04/25 11:18:33;;;;;;;;;;;18.20;60.30;;;;;;5026881;28;88462;-50
2022/04/25 11:21:08;;;;;;;;;;;18.20;60.30;;;;;;5027353;28;86899;-51
2022/04/25 11:23:43;;;;;;;;;;;18.20;60.30;;;;;;5026008;28;87803;-51
2022/04/25 11:26:10;;;;;;;;;;;18.20;60.30;;;;;;5026963;28;86835;-50
2022/04/25 11:28:58;;;;;;;;;;;18.30;60.40;;;;;;5027213;28;86933;-51
2022/04/25 11:31:33;;;;;;;;;;;18.30;60.40;;;;;;5026685;28;87196;-51
2022/04/25 11:34:01;;;;;;;;;;;18.30;60.00;;;;;;5026957;28;86856;-50
2022/04/25 11:36:26;;;;;;;;;;;18.40;59.90;;;;;;5027032;28;86923;-51
2022/04/25 11:41:38;;;;;;;;;;;18.40;60.40;;;;;;5024503;28;86164;-53
2022/04/25 11:44:07;;;;;;;;;;;18.40;59.90;;;;;;5027115;28;86843;-51
2022/04/25 11:46:33;;;;;;;;;;;18.40;60.00;;;;;;5026663;28;87472;-53
2022/04/25 11:48:59;;;;;;;;;;;18.50;59.50;;;;;;5008238;28;87880;-52
2022/04/25 11:51:26;;;;;;;;;;;18.50;58.90;;;;;;5026995;28;87499;-51
2022/04/25 11:53:53;;;;;;;;;;;18.50;59.00;;;;;;5026569;28;87460;-52
2022/04/25 11:56:18;;;;;;;;;;;18.50;59.30;;;;;;5027012;28;87092;-51
2022/04/25 11:58:44;;;;;;;;;;;18.50;59.20;;;;;;5025860;28;87234;-53
2022/04/25 12:01:10;;;;;;;;;;;18.50;57.60;;;;;;5029073;28;87896;-52
2022/04/25 12:03:36;;;;;;;;;;;18.50;57.70;;;;;;5026498;28;87837;-51
2022/04/25 12:06:12;;;;;;;;;;;18.50;58.30;;;;;;5026749;28;87099;-52
2022/04/25 12:17:00;;;;;;;;;;;18.60;58.00;;;;;;5026996;28;86894;-51
2022/04/25 12:19:26;;;;;;;;;;;18.60;58.00;;;;;;5026308;28;87941;-51
2022/04/25 12:22:04;;;;;;;;;;;18.60;58.30;;;;;;5026206;28;87808;-51
2022/04/25 12:24:29;;;;;;;;;;;18.60;58.40;;;;;;5029149;28;86944;-51
2022/04/25 12:26:55;;;;;;;;;;;18.70;58.40;;;;;;5026346;28;87544;-51
2022/04/25 12:29:21;;;;;;;;;;;18.70;58.50;;;;;;5026321;28;86891;-51
2022/04/25 12:31:48;;;;;;;;;;;18.80;58.60;;;;;;5026832;28;86105;-52
2022/04/25 12:34:14;;;;;;;;;;;18.80;58.50;;;;;;5025657;28;88700;-51
2022/04/25 12:36:52;;;;;;;;;;;18.80;58.60;;;;;;5024969;28;86915;-51
2022/04/25 12:39:17;;;;;;;;;;;18.80;58.70;;;;;;5025739;28;87828;-52
2022/04/25 12:41:58;;;;;;;;;;;18.90;58.70;;;;;;5025683;28;87863;-51
2022/04/25 12:44:25;;;;;;;;;;;18.80;58.50;;;;;;5026297;28;86838;-52
2022/04/25 12:46:55;;;;;;;;;;;18.90;58.30;;;;;;5028393;28;87374;-53
2022/04/25 12:49:22;;;;;;;;;;;18.90;57.80;;;;;;5026025;28;87024;-52
2022/04/25 12:51:51;;;;;;;;;;;18.90;57.70;;;;;;5026196;28;86864;-52
2022/04/25 12:54:37;;;;;;;;;;;18.90;57.70;;;;;;5025785;28;87534;-51
2022/04/25 12:57:15;;;;;;;;;;;19.00;57.90;;;;;;5008838;28;86302;-52
2022/04/25 12:59:42;;;;;;;;;;;19.00;58.00;;;;;;5025877;28;87182;-51
2022/04/25 13:02:17;;;;;;;;;;;19.00;57.80;;;;;;5025407;28;88709;-51
2022/04/25 13:04:53;;;;;;;;;;;19.10;57.80;;;;;;5025201;28;87826;-52
2022/04/25 13:07:19;;;;;;;;;;;19.10;58.00;;;;;;5028172;28;88604;-52
2022/04/25 13:09:45;;;;;;;;;;;19.10;57.90;;;;;;5025650;28;86881;-52
2022/04/25 13:12:20;;;;;;;;;;;19.10;57.90;;;;;;5025627;28;88078;-51
2022/04/25 13:14:45;;;;;;;;;;;19.20;57.90;;;;;;5025293;28;87060;-51
2022/04/25 13:17:12;;;;;;;;;;;19.20;57.80;;;;;;5025832;28;86881;-52
2022/04/25 13:19:37;;;;;;;;;;;19.20;57.90;;;;;;5026102;28;88269;-51
2022/04/25 13:22:03;;;;;;;;;;;19.20;58.00;;;;;;5025851;28;86762;-53
2022/04/25 13:24:28;;;;;;;;;;;19.30;58.10;;;;;;5025733;28;86942;-50
2022/04/25 13:26:55;;;;;;;;;;;19.30;58.10;;;;;;5025413;28;87269;-52
2022/04/25 13:29:20;;;;;;;;;;;19.30;58.20;;;;;;5027567;28;88634;-51
2022/04/25 13:31:46;;;;;;;;;;;19.40;58.30;;;;;;5024846;28;87801;-52
2022/04/25 13:34:12;;;;;;;;;;;19.40;58.30;;;;;;5025162;28;86875;-51
2022/04/25 13:36:37;;;;;;;;;;;19.40;58.30;;;;;;5025871;28;87251;-51
2022/04/25 13:39:03;;;;;;;;;;;19.50;58.50;;;;;;5025602;28;86865;-51
2022/04/25 13:41:30;;;;;;;;;;;19.50;58.50;;;;;;5024845;28;87836;-52
2022/04/25 13:43:56;;;;;;;;;;;19.50;58.50;;;;;;5025125;28;86915;-50
2022/04/25 13:46:22;;;;;;;;;;;19.50;58.60;;;;;;5025822;28;87038;-52
2022/04/25 13:48:48;;;;;;;;;;;19.60;58.70;;;;;;5028215;28;88567;-52
2022/04/25 13:51:14;;;;;;;;;;;19.60;58.60;;;;;;5032082;28;87104;-52
2022/04/25 13:53:41;;;;;;;;;;;19.60;58.50;;;;;;5027523;28;89254;-53
2022/04/25 13:56:09;;;;;;;;;;;19.70;58.50;;;;;;5028679;28;86869;-52
2022/04/25 13:58:38;;;;;;;;;;;19.70;58.50;;;;;;5028807;28;87109;-51
2022/04/25 14:01:05;;;;;;;;;;;19.70;58.70;;;;;;5028302;28;88501;-51
2022/04/25 14:03:30;;;;;;;;;;;19.70;58.60;;;;;;5028654;28;87099;-51
2022/04/25 14:05:56;;;;;;;;;;;19.80;58.60;;;;;;5028272;28;88124;-52
2022/04/25 14:08:22;;;;;;;;;;;19.80;58.60;;;;;;5027661;28;87573;-51
2022/04/25 14:10:48;;;;;;;;;;;19.80;58.60;;;;;;5028901;28;86119;-53
2022/04/25 14:13:14;;;;;;;;;;;19.90;58.70;;;;;;5030587;28;87447;-51
2022/04/25 14:15:40;;;;;;;;;;;19.90;58.80;;;;;;5028444;28;87191;-51
2022/04/25 14:18:07;;;;;;;;;;;20.00;58.70;;;;;;5027597;28;88574;-50
2022/04/25 14:20:33;;;;;;;;;;;20.00;58.50;;;;;;5027688;28;88502;-51
2022/04/25 14:22:59;;;;;;;;;;;20.00;58.80;;;;;;5027986;28;86885;-51
2022/04/25 14:25:26;;;;;;;;;;;20.10;58.40;;;;;;5028347;28;87826;-51
2022/04/25 14:27:52;;;;;;;;;;;20.10;58.50;;;;;;5027693;28;88952;-53
2022/04/25 14:30:17;;;;;;;;;;;20.10;58.40;;;;;;5028146;28;86938;-54
2022/04/25 14:32:43;;;;;;;;;;;20.10;58.20;;;;;;5027990;28;87981;-51
2022/04/25 14:35:09;;;;;;;;;;;20.10;58.20;;;;;;5030960;28;87793;-53
2022/04/25 14:37:34;;;;;;;;;;;20.10;58.10;;;;;;5028287;28;87132;-52
2022/04/25 14:40:00;;;;;;;;;;;20.10;58.50;;;;;;5027551;28;88711;-52
2022/04/25 14:42:26;;;;;;;;;;;20.20;58.50;;;;;;5027308;28;87815;-52
2022/04/25 14:44:51;;;;;;;;;;;20.20;58.80;;;;;;5027818;28;89112;-51
2022/04/25 14:47:17;;;;;;;;;;;20.20;58.70;;;;;;5027424;28;88577;-52
2022/04/25 14:55:12;;;;;;;;;;;20.30;58.60;;;;;;5024286;28;86924;-52
2022/04/25 14:57:38;;;;;;;;;;;20.30;58.10;;;;;;5030728;28;86864;-53
2022/04/25 15:00:04;;;;;;;;;;;20.40;58.40;;;;;;5026978;28;86910;-51
2022/04/25 15:02:30;;;;;;;;;;;20.40;58.30;;;;;;5027890;28;86841;-53
2022/04/25 15:04:55;;;;;;;;;;;20.40;58.40;;;;;;5027674;28;87686;-52
2022/04/25 15:07:21;;;;;;;;;;;20.50;58.60;;;;;;5026853;28;88373;-55